Time;durP1;ratioP1;P1;durP2;ratioP2;P2;SDS_P1;SDS_P2;PMS_P1;PMS_P2;Temp;Humidity;BMP_temperature;BMP_pressure;BME280_temperature;BME280_humidity;BME280_pressure;Samples;Min_cycle;Max_cycle;Signal;HPM_P1;HPM_P2
2021/07/14 09:09:37;;;;;;;9.10;3.72;;;;;;;;;;1035286;28;113742;-64
2021/07/14 09:10:12;;;;;;;6.95;3.58;;;;;;;;;;1033440;28;115067;-64
2021/07/14 09:10:47;;;;;;;8.35;3.50;;;;;;;;;;1032919;28;113901;-63
2021/07/14 09:11:19;;;;;;;7.43;3.35;;;;;;;;;;1030762;28;116652;-65
2021/07/14 09:11:51;;;;;;;10.52;3.58;;;;;;;;;;1017971;28;115961;-63
2021/07/14 09:12:30;;;;;;;5.05;3.40;;;;;;;;;;1021200;28;115449;-64
2021/07/14 09:13:02;;;;;;;8.15;4.05;;;;;;;;;;1023529;28;115264;-68
2021/07/14 09:13:34;;;;;;;5.60;3.55;;;;;;;;;;1017923;28;114658;-67
2021/07/14 09:14:27;;;;;;;7.78;3.45;;;;;;;;;;1029534;28;116695;-65
2021/07/14 09:15:03;;;;;;;7.88;3.70;;;;;;;;;;1024798;28;115980;-63
2021/07/14 09:15:45;;;;;;;7.00;3.70;;;;;;;;;;1017306;28;116355;-67
2021/07/14 09:16:37;;;;;;;8.85;3.63;;;;;;;;;;1010492;28;114034;-66
2021/07/14 09:17:19;;;;;;;6.85;3.85;;;;;;;;;;1014444;28;114276;-67
2021/07/14 09:17:53;;;;;;;5.72;3.75;;;;;;;;;;1021186;28;114160;-66
2021/07/14 09:18:28;;;;;;;7.38;3.55;;;;;;;;;;1020426;28;114423;-66
2021/07/14 09:19:28;;;;;;;8.13;4.10;;;;;;;;;;1022732;28;113785;-66
2021/07/14 09:20:15;;;;;;;8.48;4.10;;;;;;;;;;1016398;28;114201;-68
2021/07/14 09:20:49;;;;;;;8.88;4.15;;;;;;;;;;1020011;28;113998;-67
2021/07/14 09:21:26;;;;;;;9.55;4.20;;;;;;;;;;1020436;28;113996;-69
2021/07/14 09:21:59;;;;;;;8.95;3.85;;;;;;;;;;1014817;28;114283;-71
2021/07/14 09:22:32;;;;;;;7.80;3.70;;;;;;;;;;1018668;28;113995;-69
2021/07/14 09:23:05;;;;;;;6.28;3.63;;;;;;;;;;1020590;28;114193;-69
2021/07/14 09:23:36;;;;;;;6.93;3.90;;;;;;;;;;1017643;28;115738;-69
2021/07/14 09:24:32;;;;;;;6.47;4.43;;;;;;;;;;1022379;28;114637;-67
2021/07/14 09:25:14;;;;;;;10.35;3.97;;;;;;;;;;1020626;28;116585;-65
2021/07/14 09:25:55;;;;;;;4.93;3.45;;;;;;;;;;1011400;28;114124;-66
2021/07/14 09:26:29;;;;;;;8.18;3.60;;;;;;;;;;1020713;28;117520;-65
2021/07/14 09:27:02;;;;;;;7.28;3.78;;;;;;;;;;1020140;28;114054;-67
2021/07/14 09:27:36;;;;;;;10.02;4.15;;;;;;;;;;1024610;28;116568;-64
2021/07/14 09:28:08;;;;;;;6.30;3.63;;;;;;;;;;1022099;28;113956;-68
2021/07/14 09:28:41;;;;;;;7.28;3.92;;;;;;;;;;1014611;28;114778;-68
2021/07/14 09:29:13;;;;;;;6.63;3.70;;;;;;;;;;1019213;28;114531;-67
2021/07/14 09:30:08;;;;;;;9.05;4.20;;;;;;;;;;1018166;28;113795;-66
2021/07/14 09:30:39;;;;;;;5.10;3.65;;;;;;;;;;1013378;28;114304;-66
2021/07/14 09:31:13;;;;;;;10.30;4.00;;;;;;;;;;1025312;28;113859;-67
2021/07/14 09:31:47;;;;;;;8.95;4.45;;;;;;;;;;1023772;28;114528;-66
2021/07/14 09:32:18;;;;;;;8.15;3.97;;;;;;;;;;1020787;28;113892;-64
2021/07/14 09:33:00;;;;;;;6.50;3.88;;;;;;;;;;1020616;28;113930;-66
2021/07/14 09:33:32;;;;;;;9.55;3.60;;;;;;;;;;1018372;28;117011;-66
2021/07/14 09:34:03;;;;;;;8.63;4.20;;;;;;;;;;1023118;28;114030;-67
2021/07/14 09:34:34;;;;;;;7.38;4.40;;;;;;;;;;1022379;28;115918;-69
2021/07/14 09:35:05;;;;;;;7.93;3.83;;;;;;;;;;1018856;28;114211;-67
2021/07/14 09:35:47;;;;;;;9.93;4.10;;;;;;;;;;1018188;28;114178;-68
2021/07/14 09:36:18;;;;;;;9.52;3.67;;;;;;;;;;1021008;28;114069;-60
2021/07/14 09:36:49;;;;;;;7.32;3.70;;;;;;;;;;1021341;28;114290;-69
2021/07/14 09:37:20;;;;;;;6.93;3.63;;;;;;;;;;1014335;28;114077;-71
2021/07/14 09:37:52;;;;;;;8.13;4.03;;;;;;;;;;1023664;28;114136;-71
2021/07/14 09:38:30;;;;;;;7.53;4.20;;;;;;;;;;1023353;28;114278;-72
2021/07/14 09:39:04;;;;;;;7.40;3.70;;;;;;;;;;1017885;28;115949;-71
2021/07/14 09:39:37;;;;;;;5.30;3.67;;;;;;;;;;1028858;28;113826;-72
2021/07/14 09:40:18;;;;;;;7.65;4.53;;;;;;;;;;1029045;28;113906;-72
2021/07/14 09:40:55;;;;;;;5.45;3.95;;;;;;;;;;1010675;28;114889;-71
2021/07/14 09:41:35;;;;;;;7.30;3.83;;;;;;;;;;1016980;28;114413;-67
2021/07/14 09:42:11;;;;;;;7.88;4.18;;;;;;;;;;1022433;28;114147;-71
2021/07/14 09:43:21;;;;;;;8.80;4.13;;;;;;;;;;1020869;28;115359;-73
2021/07/14 09:43:53;;;;;;;6.85;3.60;;;;;;;;;;1025238;28;113753;-75
2021/07/14 09:44:24;;;;;;;9.20;4.45;;;;;;;;;;1027338;28;113925;-72
2021/07/14 09:44:56;;;;;;;6.90;3.97;;;;;;;;;;1020590;28;113888;-70
2021/07/14 09:45:39;;;;;;;6.38;4.18;;;;;;;;;;1022190;28;114116;-70
2021/07/14 09:46:14;;;;;;;7.78;4.10;;;;;;;;;;1019759;28;114000;-70
2021/07/14 09:47:12;;;;;;;7.13;4.40;;;;;;;;;;1031501;28;114012;-70
2021/07/14 09:47:45;;;;;;;7.53;3.70;;;;;;;;;;1029964;28;114055;-71
2021/07/14 09:48:27;;;;;;;6.25;4.15;;;;;;;;;;1026630;28;116385;-72
2021/07/14 09:48:59;;;;;;;8.10;4.05;;;;;;;;;;1024918;28;115254;-73
2021/07/14 09:49:39;;;;;;;6.38;3.85;;;;;;;;;;1020992;28;115830;-69
2021/07/14 09:50:10;;;;;;;8.18;4.18;;;;;;;;;;1028497;28;114297;-68
2021/07/14 09:50:45;;;;;;;6.30;4.18;;;;;;;;;;1024706;28;115786;-69
2021/07/14 09:51:21;;;;;;;7.03;3.88;;;;;;;;;;1027131;28;115916;-70
2021/07/14 09:51:52;;;;;;;10.18;4.45;;;;;;;;;;1021933;28;116967;-65
2021/07/14 09:52:23;;;;;;;4.68;3.58;;;;;;;;;;1024719;28;114374;-69
2021/07/14 09:53:05;;;;;;;7.97;3.85;;;;;;;;;;1028646;28;115696;-65
2021/07/14 09:53:39;;;;;;;7.13;3.88;;;;;;;;;;1026638;28;113924;-66
2021/07/14 09:54:11;;;;;;;11.60;4.18;;;;;;;;;;1021400;28;116324;-66
2021/07/14 09:54:42;;;;;;;7.65;4.45;;;;;;;;;;1026614;28;113887;-67
2021/07/14 09:55:13;;;;;;;5.88;4.00;;;;;;;;;;1024981;28;115887;-67
2021/07/14 09:55:46;;;;;;;7.55;4.25;;;;;;;;;;1023384;28;114142;-67
2021/07/14 09:56:23;;;;;;;9.48;4.40;;;;;;;;;;1020855;28;116372;-66
2021/07/14 09:56:54;;;;;;;6.93;3.65;;;;;;;;;;1015670;28;113902;-65
2021/07/14 09:57:25;;;;;;;8.95;3.75;;;;;;;;;;1024487;28;114061;-64
2021/07/14 09:58:11;;;;;;;8.85;3.95;;;;;;;;;;972153;28;114703;-67
2021/07/14 09:58:42;;;;;;;8.07;3.80;;;;;;;;;;1020646;28;117119;-63
2021/07/14 09:59:16;;;;;;;6.10;4.20;;;;;;;;;;1016029;28;114470;-64
2021/07/14 09:59:48;;;;;;;9.88;4.47;;;;;;;;;;997441;28;114062;-64
2021/07/14 10:00:20;;;;;;;6.55;3.83;;;;;;;;;;1023560;28;114234;-67
2021/07/14 10:01:03;;;;;;;7.68;3.63;;;;;;;;;;1025436;28;116223;-64
2021/07/14 10:01:36;;;;;;;6.78;3.63;;;;;;;;;;978464;28;114094;-63
2021/07/14 10:02:12;;;;;;;7.43;4.07;;;;;;;;;;969353;28;114224;-65
2021/07/14 10:02:56;;;;;;;7.53;3.72;;;;;;;;;;1021515;28;113802;-62
2021/07/14 10:03:34;;;;;;;8.60;3.90;;;;;;;;;;1022653;28;116605;-62
2021/07/14 10:04:05;;;;;;;8.73;4.07;;;;;;;;;;1015969;28;114209;-64
2021/07/14 10:04:37;;;;;;;9.25;4.15;;;;;;;;;;1019638;28;113988;-66
2021/07/14 10:05:11;;;;;;;5.60;3.90;;;;;;;;;;1017183;28;114121;-64
2021/07/14 10:05:43;;;;;;;5.40;4.43;;;;;;;;;;1014863;28;114726;-65
2021/07/14 10:06:15;;;;;;;10.68;3.90;;;;;;;;;;1021269;28;114391;-66
2021/07/14 10:06:46;;;;;;;6.90;4.20;;;;;;;;;;1020114;28;116430;-64
2021/07/14 10:07:28;;;;;;;7.15;3.72;;;;;;;;;;1016355;28;114605;-64
2021/07/14 10:08:20;;;;;;;6.72;3.95;;;;;;;;;;1009000;28;116133;-65
2021/07/14 10:08:51;;;;;;;6.78;3.42;;;;;;;;;;1010967;28;114058;-63
2021/07/14 10:09:25;;;;;;;8.10;4.28;;;;;;;;;;1016057;28;114421;-65
2021/07/14 10:10:10;;;;;;;8.30;4.32;;;;;;;;;;1015972;28;113978;-66
2021/07/14 10:43:10;;;;;;;3.70;3.22;;;;;;;;;;1032203;28;113805;-68
2021/07/14 10:43:44;;;;;;;5.03;2.80;;;;;;;;;;1031353;28;113838;-61
2021/07/14 10:44:19;;;;;;;10.02;3.78;;;;;;;;;;1028854;28;116352;-62
2021/07/14 10:44:52;;;;;;;93.13;9.20;;;;;;;;;;1019562;28;114442;-64
2021/07/14 10:45:23;;;;;;;122.25;12.38;;;;;;;;;;1024539;28;113872;-66
2021/07/14 10:45:55;;;;;;;15.23;4.63;;;;;;;;;;1020737;28;113899;-62
2021/07/14 10:46:28;;;;;;;11.65;4.32;;;;;;;;;;1022616;28;116405;-62
2021/07/14 10:47:00;;;;;;;8.00;4.07;;;;;;;;;;1020016;28;114245;-63
2021/07/14 10:47:31;;;;;;;8.70;3.38;;;;;;;;;;1020358;28;113956;-61
2021/07/14 10:48:02;;;;;;;9.43;3.65;;;;;;;;;;1024141;28;114168;-72
2021/07/14 10:48:34;;;;;;;10.77;4.13;;;;;;;;;;1021174;28;116399;-75
2021/07/14 10:49:07;;;;;;;9.63;3.60;;;;;;;;;;1020123;28;113898;-67
2021/07/14 10:49:41;;;;;;;6.75;3.60;;;;;;;;;;1015418;28;118043;-67
2021/07/14 10:50:14;;;;;;;8.90;3.72;;;;;;;;;;1011955;28;114122;-65
2021/07/14 10:50:47;;;;;;;7.68;3.50;;;;;;;;;;1027726;28;116645;-66
2021/07/14 10:51:19;;;;;;;8.38;3.85;;;;;;;;;;1023599;28;113998;-64
2021/07/14 10:51:51;;;;;;;5.95;3.38;;;;;;;;;;1020681;28;114722;-66
2021/07/14 10:52:23;;;;;;;6.10;3.33;;;;;;;;;;1019400;28;114153;-66
2021/07/14 10:52:55;;;;;;;7.22;4.10;;;;;;;;;;1016026;28;117291;-65
2021/07/14 10:53:26;;;;;;;7.32;3.60;;;;;;;;;;1024231;28;114058;-65
2021/07/14 10:54:02;;;;;;;6.22;3.10;;;;;;;;;;1017382;28;114873;-66
2021/07/14 10:54:35;;;;;;;9.75;3.72;;;;;;;;;;1019974;28;114109;-66
2021/07/14 10:55:11;;;;;;;7.70;3.45;;;;;;;;;;1020140;28;114446;-64
2021/07/14 10:55:44;;;;;;;7.63;3.25;;;;;;;;;;1018484;28;114165;-67
2021/07/14 10:56:17;;;;;;;6.90;3.65;;;;;;;;;;1022542;28;113813;-65
2021/07/14 10:56:48;;;;;;;5.85;3.60;;;;;;;;;;1019965;28;113986;-64
2021/07/14 10:57:22;;;;;;;4.97;3.38;;;;;;;;;;1021988;28;116381;-64
2021/07/14 10:57:54;;;;;;;5.85;3.25;;;;;;;;;;1021344;28;114003;-67
2021/07/14 10:58:28;;;;;;;7.88;3.03;;;;;;;;;;1024552;28;114510;-67
2021/07/14 10:59:00;;;;;;;6.70;3.05;;;;;;;;;;1020650;28;114267;-64
2021/07/14 10:59:32;;;;;;;5.07;3.00;;;;;;;;;;1025163;28;116021;-63
2021/07/14 11:00:06;;;;;;;6.90;3.28;;;;;;;;;;1020169;28;113855;-67
2021/07/14 11:00:45;;;;;;;5.40;2.67;;;;;;;;;;1013287;28;117165;-63
2021/07/14 11:01:55;;;;;;;5.00;2.90;;;;;;;;;;1020519;28;113943;-65
2021/07/14 11:02:42;;;;;;;5.40;3.10;;;;;;;;;;1027329;28;115129;-63
2021/07/14 11:03:40;;;;;;;7.30;3.08;;;;;;;;;;1025641;28;113837;-66
2021/07/14 11:04:26;;;;;;;5.45;3.03;;;;;;;;;;1025495;28;114637;-65
2021/07/14 11:04:57;;;;;;;9.50;2.92;;;;;;;;;;1020824;28;114042;-66
